sensor_id;sensor_type;location;lat;lon;timestamp;P1;durP1;ratioP1;P2;durP2;ratioP2
57297;SDS011;43147;50.972;18.210;2023-12-20T00:01:32;15.50;;;7.50;;
57297;SDS011;43147;50.972;18.210;2023-12-20T00:03:57;10.90;;;6.20;;
57297;SDS011;43147;50.972;18.210;2023-12-20T00:06:23;10.70;;;5.60;;
57297;SDS011;43147;50.972;18.210;2023-12-20T00:08:49;13.30;;;6.30;;
57297;SDS011;43147;50.972;18.210;2023-12-20T00:11:17;9.00;;;5.80;;
57297;SDS011;43147;50.972;18.210;2023-12-20T00:13:42;9.60;;;6.30;;
57297;SDS011;43147;50.972;18.210;2023-12-20T00:16:08;10.90;;;5.10;;
57297;SDS011;43147;50.972;18.210;2023-12-20T00:18:33;13.20;;;6.30;;
57297;SDS011;43147;50.972;18.210;2023-12-20T00:20:58;11.10;;;6.50;;
57297;SDS011;43147;50.972;18.210;2023-12-20T00:23:24;18.60;;;9.80;;
57297;SDS011;43147;50.972;18.210;2023-12-20T00:25:49;12.10;;;7.20;;
57297;SDS011;43147;50.972;18.210;2023-12-20T00:28:15;12.70;;;7.60;;
57297;SDS011;43147;50.972;18.210;2023-12-20T00:30:40;18.30;;;9.00;;
57297;SDS011;43147;50.972;18.210;2023-12-20T00:33:06;10.90;;;6.20;;
57297;SDS011;43147;50.972;18.210;2023-12-20T00:35:31;15.10;;;6.70;;
57297;SDS011;43147;50.972;18.210;2023-12-20T00:37:58;25.20;;;9.70;;
57297;SDS011;43147;50.972;18.210;2023-12-20T00:40:23;15.90;;;7.10;;
57297;SDS011;43147;50.972;18.210;2023-12-20T00:42:49;14.60;;;7.20;;
57297;SDS011;43147;50.972;18.210;2023-12-20T00:45:14;14.30;;;7.40;;
57297;SDS011;43147;50.972;18.210;2023-12-20T00:47:40;10.90;;;6.40;;
57297;SDS011;43147;50.972;18.210;2023-12-20T00:50:06;11.00;;;5.90;;
57297;SDS011;43147;50.972;18.210;2023-12-20T00:52:32;6.90;;;5.10;;
57297;SDS011;43147;50.972;18.210;2023-12-20T00:54:57;11.50;;;6.60;;
57297;SDS011;43147;50.972;18.210;2023-12-20T00:57:22;12.70;;;6.30;;
57297;SDS011;43147;50.972;18.210;2023-12-20T00:59:48;15.90;;;7.40;;
57297;SDS011;43147;50.972;18.210;2023-12-20T01:02:14;10.10;;;6.50;;
57297;SDS011;43147;50.972;18.210;2023-12-20T01:04:40;9.90;;;5.60;;
57297;SDS011;43147;50.972;18.210;2023-12-20T01:07:05;8.10;;;5.20;;
57297;SDS011;43147;50.972;18.210;2023-12-20T01:09:31;9.40;;;5.60;;
57297;SDS011;43147;50.972;18.210;2023-12-20T01:11:56;11.90;;;7.90;;
57297;SDS011;43147;50.972;18.210;2023-12-20T01:14:22;16.40;;;6.40;;
57297;SDS011;43147;50.972;18.210;2023-12-20T01:16:47;8.80;;;5.80;;
57297;SDS011;43147;50.972;18.210;2023-12-20T01:19:13;10.30;;;5.50;;
57297;SDS011;43147;50.972;18.210;2023-12-20T01:21:40;11.40;;;7.00;;
57297;SDS011;43147;50.972;18.210;2023-12-20T01:24:05;10.90;;;6.60;;
57297;SDS011;43147;50.972;18.210;2023-12-20T01:26:31;8.70;;;4.90;;
57297;SDS011;43147;50.972;18.210;2023-12-20T01:28:57;12.20;;;5.50;;
57297;SDS011;43147;50.972;18.210;2023-12-20T01:31:22;14.90;;;6.40;;
57297;SDS011;43147;50.972;18.210;2023-12-20T01:33:48;13.30;;;7.60;;
57297;SDS011;43147;50.972;18.210;2023-12-20T01:36:13;11.90;;;8.00;;
57297;SDS011;43147;50.972;18.210;2023-12-20T01:38:39;9.70;;;6.20;;
57297;SDS011;43147;50.972;18.210;2023-12-20T01:41:04;14.40;;;8.40;;
57297;SDS011;43147;50.972;18.210;2023-12-20T01:43:29;9.40;;;5.70;;
57297;SDS011;43147;50.972;18.210;2023-12-20T01:45:58;11.50;;;6.40;;
57297;SDS011;43147;50.972;18.210;2023-12-20T01:48:24;9.60;;;5.60;;
57297;SDS011;43147;50.972;18.210;2023-12-20T01:50:51;8.00;;;5.70;;
57297;SDS011;43147;50.972;18.210;2023-12-20T01:53:17;9.80;;;6.60;;
57297;SDS011;43147;50.972;18.210;2023-12-20T01:55:44;9.20;;;5.60;;
57297;SDS011;43147;50.972;18.210;2023-12-20T01:58:10;9.10;;;5.50;;
57297;SDS011;43147;50.972;18.210;2023-12-20T02:00:36;8.30;;;5.50;;
57297;SDS011;43147;50.972;18.210;2023-12-20T02:03:02;9.90;;;6.20;;
57297;SDS011;43147;50.972;18.210;2023-12-20T02:05:29;10.60;;;7.10;;
57297;SDS011;43147;50.972;18.210;2023-12-20T02:07:55;9.70;;;5.50;;
57297;SDS011;43147;50.972;18.210;2023-12-20T02:10:21;7.60;;;5.40;;
57297;SDS011;43147;50.972;18.210;2023-12-20T02:12:46;8.60;;;5.70;;
57297;SDS011;43147;50.972;18.210;2023-12-20T02:15:12;8.60;;;5.60;;
57297;SDS011;43147;50.972;18.210;2023-12-20T02:17:38;7.00;;;5.20;;
57297;SDS011;43147;50.972;18.210;2023-12-20T02:20:07;7.50;;;5.20;;
57297;SDS011;43147;50.972;18.210;2023-12-20T02:22:32;13.80;;;6.60;;
57297;SDS011;43147;50.972;18.210;2023-12-20T02:24:58;11.00;;;5.40;;
57297;SDS011;43147;50.972;18.210;2023-12-20T02:27:24;12.10;;;6.00;;
57297;SDS011;43147;50.972;18.210;2023-12-20T02:29:49;11.40;;;6.80;;
57297;SDS011;43147;50.972;18.210;2023-12-20T02:32:17;8.40;;;5.80;;
57297;SDS011;43147;50.972;18.210;2023-12-20T02:34:43;11.30;;;6.80;;
57297;SDS011;43147;50.972;18.210;2023-12-20T02:37:08;10.30;;;6.40;;
57297;SDS011;43147;50.972;18.210;2023-12-20T02:39:33;12.30;;;5.70;;
57297;SDS011;43147;50.972;18.210;2023-12-20T02:41:59;15.50;;;7.40;;
57297;SDS011;43147;50.972;18.210;2023-12-20T02:44:25;9.40;;;6.40;;
57297;SDS011;43147;50.972;18.210;2023-12-20T02:46:50;10.60;;;7.30;;
57297;SDS011;43147;50.972;18.210;2023-12-20T02:49:15;9.40;;;7.30;;
57297;SDS011;43147;50.972;18.210;2023-12-20T02:51:41;12.50;;;8.50;;
57297;SDS011;43147;50.972;18.210;2023-12-20T02:54:07;11.10;;;7.80;;
57297;SDS011;43147;50.972;18.210;2023-12-20T02:56:33;15.70;;;7.20;;
57297;SDS011;43147;50.972;18.210;2023-12-20T02:58:58;15.70;;;8.80;;
57297;SDS011;43147;50.972;18.210;2023-12-20T03:01:24;40.50;;;16.80;;
57297;SDS011;43147;50.972;18.210;2023-12-20T03:03:50;18.00;;;9.20;;
57297;SDS011;43147;50.972;18.210;2023-12-20T03:06:18;26.00;;;11.90;;
57297;SDS011;43147;50.972;18.210;2023-12-20T03:08:44;28.00;;;11.20;;
57297;SDS011;43147;50.972;18.210;2023-12-20T03:11:11;16.40;;;8.60;;
57297;SDS011;43147;50.972;18.210;2023-12-20T03:13:36;17.00;;;8.90;;
57297;SDS011;43147;50.972;18.210;2023-12-20T03:16:08;20.90;;;10.60;;
57297;SDS011;43147;50.972;18.210;2023-12-20T03:18:34;17.70;;;8.90;;
57297;SDS011;43147;50.972;18.210;2023-12-20T03:21:00;14.80;;;8.20;;
57297;SDS011;43147;50.972;18.210;2023-12-20T03:23:25;17.50;;;9.10;;
57297;SDS011;43147;50.972;18.210;2023-12-20T03:25:52;16.60;;;9.50;;
57297;SDS011;43147;50.972;18.210;2023-12-20T03:28:18;14.00;;;8.60;;
57297;SDS011;43147;50.972;18.210;2023-12-20T03:30:44;17.30;;;9.30;;
57297;SDS011;43147;50.972;18.210;2023-12-20T03:33:10;15.80;;;9.70;;
57297;SDS011;43147;50.972;18.210;2023-12-20T03:35:35;14.30;;;8.50;;
57297;SDS011;43147;50.972;18.210;2023-12-20T03:38:01;14.90;;;9.30;;
57297;SDS011;43147;50.972;18.210;2023-12-20T03:40:26;16.10;;;9.50;;
57297;SDS011;43147;50.972;18.210;2023-12-20T03:42:51;15.70;;;9.20;;
57297;SDS011;43147;50.972;18.210;2023-12-20T03:45:17;15.40;;;11.30;;
57297;SDS011;43147;50.972;18.210;2023-12-20T03:47:42;15.50;;;10.40;;
57297;SDS011;43147;50.972;18.210;2023-12-20T03:50:08;20.10;;;10.80;;
57297;SDS011;43147;50.972;18.210;2023-12-20T03:52:34;23.90;;;10.80;;
57297;SDS011;43147;50.972;18.210;2023-12-20T03:54:59;21.20;;;9.80;;
57297;SDS011;43147;50.972;18.210;2023-12-20T03:57:24;23.30;;;10.00;;
57297;SDS011;43147;50.972;18.210;2023-12-20T03:59:50;33.80;;;13.00;;
57297;SDS011;43147;50.972;18.210;2023-12-20T04:02:15;29.30;;;11.80;;
57297;SDS011;43147;50.972;18.210;2023-12-20T04:04:43;20.00;;;10.80;;
57297;SDS011;43147;50.972;18.210;2023-12-20T04:07:08;21.30;;;11.10;;
57297;SDS011;43147;50.972;18.210;2023-12-20T04:09:34;11.70;;;7.40;;
57297;SDS011;43147;50.972;18.210;2023-12-20T04:11:59;13.70;;;9.10;;
57297;SDS011;43147;50.972;18.210;2023-12-20T04:14:25;16.40;;;9.90;;
57297;SDS011;43147;50.972;18.210;2023-12-20T04:16:50;14.30;;;10.10;;
57297;SDS011;43147;50.972;18.210;2023-12-20T04:19:16;20.90;;;10.20;;
57297;SDS011;43147;50.972;18.210;2023-12-20T04:21:41;14.00;;;9.70;;
57297;SDS011;43147;50.972;18.210;2023-12-20T04:24:07;15.60;;;10.00;;
57297;SDS011;43147;50.972;18.210;2023-12-20T04:26:33;17.10;;;11.00;;
57297;SDS011;43147;50.972;18.210;2023-12-20T04:28:59;19.60;;;10.30;;
57297;SDS011;43147;50.972;18.210;2023-12-20T04:31:24;21.00;;;11.10;;
57297;SDS011;43147;50.972;18.210;2023-12-20T04:33:50;19.00;;;9.70;;
57297;SDS011;43147;50.972;18.210;2023-12-20T04:36:15;18.10;;;9.90;;
57297;SDS011;43147;50.972;18.210;2023-12-20T04:38:41;12.90;;;8.40;;
57297;SDS011;43147;50.972;18.210;2023-12-20T04:41:06;16.00;;;8.80;;
57297;SDS011;43147;50.972;18.210;2023-12-20T04:43:32;14.80;;;9.90;;
57297;SDS011;43147;50.972;18.210;2023-12-20T04:45:58;15.50;;;8.00;;
57297;SDS011;43147;50.972;18.210;2023-12-20T04:48:23;16.00;;;9.00;;
57297;SDS011;43147;50.972;18.210;2023-12-20T04:50:49;11.30;;;7.10;;
57297;SDS011;43147;50.972;18.210;2023-12-20T04:53:14;13.00;;;8.60;;
57297;SDS011;43147;50.972;18.210;2023-12-20T04:55:40;13.40;;;7.90;;
57297;SDS011;43147;50.972;18.210;2023-12-20T04:58:05;13.60;;;7.00;;
57297;SDS011;43147;50.972;18.210;2023-12-20T05:00:31;10.20;;;7.10;;
57297;SDS011;43147;50.972;18.210;2023-12-20T05:02:56;12.80;;;8.30;;
57297;SDS011;43147;50.972;18.210;2023-12-20T05:05:21;15.70;;;8.30;;
57297;SDS011;43147;50.972;18.210;2023-12-20T05:07:47;15.10;;;8.80;;
57297;SDS011;43147;50.972;18.210;2023-12-20T05:10:12;11.60;;;8.60;;
57297;SDS011;43147;50.972;18.210;2023-12-20T05:12:38;11.90;;;8.70;;
57297;SDS011;43147;50.972;18.210;2023-12-20T05:15:05;15.00;;;8.40;;
57297;SDS011;43147;50.972;18.210;2023-12-20T05:17:31;14.50;;;10.00;;
57297;SDS011;43147;50.972;18.210;2023-12-20T05:19:56;13.20;;;9.20;;
57297;SDS011;43147;50.972;18.210;2023-12-20T05:22:22;20.40;;;9.90;;
57297;SDS011;43147;50.972;18.210;2023-12-20T05:24:48;14.90;;;8.50;;
57297;SDS011;43147;50.972;18.210;2023-12-20T05:27:13;12.80;;;8.40;;
57297;SDS011;43147;50.972;18.210;2023-12-20T05:29:39;11.10;;;7.50;;
57297;SDS011;43147;50.972;18.210;2023-12-20T05:32:05;8.80;;;6.80;;
57297;SDS011;43147;50.972;18.210;2023-12-20T05:34:30;11.70;;;7.10;;
57297;SDS011;43147;50.972;18.210;2023-12-20T05:36:57;12.90;;;6.40;;
57297;SDS011;43147;50.972;18.210;2023-12-20T05:39:23;12.10;;;7.50;;
57297;SDS011;43147;50.972;18.210;2023-12-20T05:41:48;10.70;;;5.70;;
57297;SDS011;43147;50.972;18.210;2023-12-20T05:44:14;10.20;;;5.80;;
57297;SDS011;43147;50.972;18.210;2023-12-20T05:46:39;15.40;;;6.70;;
57297;SDS011;43147;50.972;18.210;2023-12-20T05:49:05;8.80;;;4.70;;
57297;SDS011;43147;50.972;18.210;2023-12-20T05:51:31;6.50;;;4.10;;
57297;SDS011;43147;50.972;18.210;2023-12-20T05:53:58;5.10;;;3.90;;
57297;SDS011;43147;50.972;18.210;2023-12-20T05:56:23;5.50;;;4.00;;
57297;SDS011;43147;50.972;18.210;2023-12-20T05:58:49;7.40;;;2.40;;
57297;SDS011;43147;50.972;18.210;2023-12-20T06:01:15;3.00;;;2.20;;
57297;SDS011;43147;50.972;18.210;2023-12-20T06:03:42;4.50;;;2.70;;
57297;SDS011;43147;50.972;18.210;2023-12-20T06:06:09;4.20;;;2.70;;
57297;SDS011;43147;50.972;18.210;2023-12-20T06:08:35;5.30;;;2.20;;
57297;SDS011;43147;50.972;18.210;2023-12-20T06:11:01;5.40;;;3.30;;
57297;SDS011;43147;50.972;18.210;2023-12-20T06:13:26;7.00;;;2.60;;
57297;SDS011;43147;50.972;18.210;2023-12-20T06:15:53;5.00;;;2.70;;
57297;SDS011;43147;50.972;18.210;2023-12-20T06:18:20;4.20;;;2.20;;
57297;SDS011;43147;50.972;18.210;2023-12-20T06:20:46;5.90;;;3.00;;
57297;SDS011;43147;50.972;18.210;2023-12-20T06:23:11;3.90;;;2.90;;
57297;SDS011;43147;50.972;18.210;2023-12-20T06:25:36;2.90;;;2.40;;
57297;SDS011;43147;50.972;18.210;2023-12-20T06:28:02;6.50;;;3.60;;
57297;SDS011;43147;50.972;18.210;2023-12-20T06:30:28;5.70;;;3.10;;
57297;SDS011;43147;50.972;18.210;2023-12-20T06:32:53;3.40;;;2.20;;
57297;SDS011;43147;50.972;18.210;2023-12-20T06:35:20;3.80;;;2.30;;
57297;SDS011;43147;50.972;18.210;2023-12-20T06:37:48;3.80;;;2.50;;
57297;SDS011;43147;50.972;18.210;2023-12-20T06:40:13;4.40;;;1.90;;
57297;SDS011;43147;50.972;18.210;2023-12-20T06:42:39;4.80;;;2.50;;
57297;SDS011;43147;50.972;18.210;2023-12-20T06:45:05;7.00;;;2.50;;
57297;SDS011;43147;50.972;18.210;2023-12-20T06:47:33;5.40;;;2.80;;
57297;SDS011;43147;50.972;18.210;2023-12-20T06:49:58;7.40;;;3.20;;
57297;SDS011;43147;50.972;18.210;2023-12-20T06:52:24;6.10;;;2.20;;
57297;SDS011;43147;50.972;18.210;2023-12-20T06:54:49;3.70;;;2.20;;
57297;SDS011;43147;50.972;18.210;2023-12-20T06:57:15;4.20;;;2.90;;
57297;SDS011;43147;50.972;18.210;2023-12-20T06:59:41;2.90;;;2.10;;
57297;SDS011;43147;50.972;18.210;2023-12-20T07:02:08;5.70;;;3.10;;
57297;SDS011;43147;50.972;18.210;2023-12-20T07:04:39;4.80;;;2.40;;
57297;SDS011;43147;50.972;18.210;2023-12-20T07:07:05;4.40;;;2.50;;
57297;SDS011;43147;50.972;18.210;2023-12-20T07:09:32;4.40;;;2.70;;
57297;SDS011;43147;50.972;18.210;2023-12-20T07:11:58;4.20;;;1.90;;
57297;SDS011;43147;50.972;18.210;2023-12-20T07:14:24;4.90;;;2.30;;
57297;SDS011;43147;50.972;18.210;2023-12-20T07:16:50;16.60;;;8.20;;
57297;SDS011;43147;50.972;18.210;2023-12-20T07:19:15;7.40;;;4.00;;
57297;SDS011;43147;50.972;18.210;2023-12-20T07:21:41;6.70;;;3.30;;
57297;SDS011;43147;50.972;18.210;2023-12-20T07:24:06;2.90;;;2.10;;
57297;SDS011;43147;50.972;18.210;2023-12-20T07:26:31;2.80;;;1.80;;
57297;SDS011;43147;50.972;18.210;2023-12-20T07:28:57;1.60;;;1.10;;
57297;SDS011;43147;50.972;18.210;2023-12-20T07:31:24;2.50;;;1.50;;
57297;SDS011;43147;50.972;18.210;2023-12-20T07:33:49;2.20;;;1.20;;
57297;SDS011;43147;50.972;18.210;2023-12-20T07:36:15;2.20;;;1.30;;
57297;SDS011;43147;50.972;18.210;2023-12-20T07:38:40;2.00;;;1.40;;
57297;SDS011;43147;50.972;18.210;2023-12-20T07:41:09;2.30;;;1.40;;
57297;SDS011;43147;50.972;18.210;2023-12-20T07:43:35;2.70;;;1.60;;
57297;SDS011;43147;50.972;18.210;2023-12-20T07:46:04;2.80;;;1.70;;
57297;SDS011;43147;50.972;18.210;2023-12-20T07:51:01;2.90;;;1.70;;
57297;SDS011;43147;50.972;18.210;2023-12-20T07:53:27;1.60;;;1.40;;
57297;SDS011;43147;50.972;18.210;2023-12-20T07:55:52;3.30;;;1.30;;
57297;SDS011;43147;50.972;18.210;2023-12-20T07:58:18;3.20;;;1.50;;
57297;SDS011;43147;50.972;18.210;2023-12-20T08:00:44;4.70;;;2.90;;
57297;SDS011;43147;50.972;18.210;2023-12-20T08:03:09;4.60;;;2.00;;
57297;SDS011;43147;50.972;18.210;2023-12-20T08:05:35;3.60;;;1.90;;
57297;SDS011;43147;50.972;18.210;2023-12-20T08:08:00;5.40;;;2.80;;
57297;SDS011;43147;50.972;18.210;2023-12-20T08:10:26;3.70;;;2.70;;
57297;SDS011;43147;50.972;18.210;2023-12-20T08:12:54;4.60;;;2.50;;
57297;SDS011;43147;50.972;18.210;2023-12-20T08:15:20;5.70;;;3.50;;
57297;SDS011;43147;50.972;18.210;2023-12-20T08:17:45;6.70;;;4.70;;
57297;SDS011;43147;50.972;18.210;2023-12-20T08:20:11;10.10;;;4.30;;
57297;SDS011;43147;50.972;18.210;2023-12-20T08:22:36;8.30;;;5.40;;
57297;SDS011;43147;50.972;18.210;2023-12-20T08:25:02;6.90;;;4.00;;
57297;SDS011;43147;50.972;18.210;2023-12-20T08:27:28;6.90;;;4.20;;
57297;SDS011;43147;50.972;18.210;2023-12-20T08:29:54;6.50;;;4.70;;
57297;SDS011;43147;50.972;18.210;2023-12-20T08:32:19;3.80;;;2.70;;
57297;SDS011;43147;50.972;18.210;2023-12-20T08:34:44;7.60;;;3.80;;
57297;SDS011;43147;50.972;18.210;2023-12-20T08:37:10;8.90;;;3.30;;
57297;SDS011;43147;50.972;18.210;2023-12-20T08:39:35;7.20;;;3.70;;
57297;SDS011;43147;50.972;18.210;2023-12-20T08:42:01;10.20;;;6.00;;
57297;SDS011;43147;50.972;18.210;2023-12-20T08:44:27;6.70;;;4.60;;
57297;SDS011;43147;50.972;18.210;2023-12-20T08:46:52;6.50;;;4.40;;
57297;SDS011;43147;50.972;18.210;2023-12-20T08:49:19;8.50;;;5.60;;
57297;SDS011;43147;50.972;18.210;2023-12-20T08:51:45;6.40;;;4.80;;
57297;SDS011;43147;50.972;18.210;2023-12-20T08:54:10;8.50;;;4.60;;
57297;SDS011;43147;50.972;18.210;2023-12-20T08:56:38;11.30;;;5.30;;
57297;SDS011;43147;50.972;18.210;2023-12-20T08:59:03;9.00;;;4.80;;
57297;SDS011;43147;50.972;18.210;2023-12-20T09:01:29;11.20;;;4.90;;
57297;SDS011;43147;50.972;18.210;2023-12-20T09:03:55;14.90;;;6.60;;
57297;SDS011;43147;50.972;18.210;2023-12-20T09:06:20;19.20;;;7.40;;
57297;SDS011;43147;50.972;18.210;2023-12-20T09:08:46;19.20;;;8.10;;
57297;SDS011;43147;50.972;18.210;2023-12-20T09:11:11;18.70;;;9.60;;
57297;SDS011;43147;50.972;18.210;2023-12-20T09:13:37;14.10;;;6.10;;
57297;SDS011;43147;50.972;18.210;2023-12-20T09:16:03;8.70;;;5.80;;
57297;SDS011;43147;50.972;18.210;2023-12-20T09:18:29;6.00;;;4.50;;
57297;SDS011;43147;50.972;18.210;2023-12-20T09:20:54;5.50;;;4.20;;
57297;SDS011;43147;50.972;18.210;2023-12-20T09:23:20;4.50;;;2.60;;
57297;SDS011;43147;50.972;18.210;2023-12-20T09:25:45;5.50;;;3.10;;
57297;SDS011;43147;50.972;18.210;2023-12-20T09:28:11;4.70;;;3.10;;
57297;SDS011;43147;50.972;18.210;2023-12-20T09:30:36;5.90;;;4.20;;
57297;SDS011;43147;50.972;18.210;2023-12-20T09:33:04;5.40;;;3.60;;
57297;SDS011;43147;50.972;18.210;2023-12-20T09:35:32;8.30;;;2.80;;
57297;SDS011;43147;50.972;18.210;2023-12-20T09:37:58;5.60;;;2.80;;
57297;SDS011;43147;50.972;18.210;2023-12-20T09:40:23;5.00;;;3.10;;
57297;SDS011;43147;50.972;18.210;2023-12-20T09:42:58;3.60;;;2.00;;
57297;SDS011;43147;50.972;18.210;2023-12-20T09:45:30;5.90;;;2.80;;
57297;SDS011;43147;50.972;18.210;2023-12-20T09:47:56;5.90;;;3.10;;
57297;SDS011;43147;50.972;18.210;2023-12-20T09:50:23;3.30;;;2.50;;
57297;SDS011;43147;50.972;18.210;2023-12-20T09:52:49;6.70;;;3.20;;
57297;SDS011;43147;50.972;18.210;2023-12-20T09:55:17;3.80;;;2.50;;
57297;SDS011;43147;50.972;18.210;2023-12-20T09:57:44;3.00;;;2.30;;
57297;SDS011;43147;50.972;18.210;2023-12-20T10:00:10;5.40;;;2.60;;
57297;SDS011;43147;50.972;18.210;2023-12-20T10:02:38;4.90;;;2.30;;
57297;SDS011;43147;50.972;18.210;2023-12-20T10:05:08;4.00;;;2.10;;
57297;SDS011;43147;50.972;18.210;2023-12-20T10:07:36;4.60;;;2.40;;
57297;SDS011;43147;50.972;18.210;2023-12-20T10:10:01;7.10;;;2.90;;
57297;SDS011;43147;50.972;18.210;2023-12-20T10:12:27;3.20;;;2.40;;
57297;SDS011;43147;50.972;18.210;2023-12-20T10:14:53;4.80;;;2.40;;
57297;SDS011;43147;50.972;18.210;2023-12-20T10:17:18;4.20;;;2.80;;
57297;SDS011;43147;50.972;18.210;2023-12-20T10:19:44;3.30;;;2.10;;
57297;SDS011;43147;50.972;18.210;2023-12-20T10:22:09;4.10;;;2.70;;
57297;SDS011;43147;50.972;18.210;2023-12-20T10:24:35;4.40;;;2.50;;
57297;SDS011;43147;50.972;18.210;2023-12-20T10:27:07;5.60;;;3.60;;
57297;SDS011;43147;50.972;18.210;2023-12-20T10:29:34;7.00;;;3.40;;
57297;SDS011;43147;50.972;18.210;2023-12-20T10:32:05;4.60;;;2.60;;
57297;SDS011;43147;50.972;18.210;2023-12-20T10:34:50;4.80;;;2.30;;
57297;SDS011;43147;50.972;18.210;2023-12-20T10:37:16;5.60;;;3.00;;
57297;SDS011;43147;50.972;18.210;2023-12-20T10:39:42;3.60;;;2.30;;
57297;SDS011;43147;50.972;18.210;2023-12-20T10:42:12;3.90;;;2.40;;
57297;SDS011;43147;50.972;18.210;2023-12-20T10:44:37;4.70;;;3.00;;
57297;SDS011;43147;50.972;18.210;2023-12-20T10:47:03;5.70;;;2.50;;
57297;SDS011;43147;50.972;18.210;2023-12-20T10:49:29;8.50;;;2.30;;
57297;SDS011;43147;50.972;18.210;2023-12-20T10:51:56;2.90;;;2.40;;
57297;SDS011;43147;50.972;18.210;2023-12-20T10:54:23;5.60;;;3.40;;
57297;SDS011;43147;50.972;18.210;2023-12-20T10:56:48;11.90;;;3.80;;
57297;SDS011;43147;50.972;18.210;2023-12-20T10:59:19;9.90;;;3.20;;
57297;SDS011;43147;50.972;18.210;2023-12-20T11:01:45;8.40;;;2.60;;
57297;SDS011;43147;50.972;18.210;2023-12-20T11:04:13;5.20;;;2.40;;
57297;SDS011;43147;50.972;18.210;2023-12-20T11:06:45;4.10;;;2.40;;
57297;SDS011;43147;50.972;18.210;2023-12-20T11:09:24;5.40;;;3.60;;
57297;SDS011;43147;50.972;18.210;2023-12-20T11:14:53;6.40;;;3.10;;
57297;SDS011;43147;50.972;18.210;2023-12-20T11:17:22;9.90;;;3.90;;
57297;SDS011;43147;50.972;18.210;2023-12-20T11:22:21;10.90;;;5.00;;
57297;SDS011;43147;50.972;18.210;2023-12-20T11:24:47;12.30;;;5.90;;
57297;SDS011;43147;50.972;18.210;2023-12-20T11:27:14;7.00;;;4.40;;
57297;SDS011;43147;50.972;18.210;2023-12-20T11:29:41;9.20;;;4.60;;
57297;SDS011;43147;50.972;18.210;2023-12-20T11:34:55;8.90;;;4.60;;
57297;SDS011;43147;50.972;18.210;2023-12-20T11:37:21;8.40;;;4.10;;
57297;SDS011;43147;50.972;18.210;2023-12-20T11:39:56;9.80;;;4.90;;
57297;SDS011;43147;50.972;18.210;2023-12-20T11:42:26;7.30;;;4.00;;
57297;SDS011;43147;50.972;18.210;2023-12-20T11:44:53;10.00;;;5.90;;
57297;SDS011;43147;50.972;18.210;2023-12-20T11:47:21;13.20;;;5.20;;
57297;SDS011;43147;50.972;18.210;2023-12-20T11:49:48;13.70;;;6.40;;
57297;SDS011;43147;50.972;18.210;2023-12-20T11:52:15;11.20;;;6.00;;
57297;SDS011;43147;50.972;18.210;2023-12-20T11:54:41;10.40;;;5.80;;
57297;SDS011;43147;50.972;18.210;2023-12-20T11:57:06;12.60;;;7.30;;
57297;SDS011;43147;50.972;18.210;2023-12-20T11:59:32;8.90;;;4.80;;
57297;SDS011;43147;50.972;18.210;2023-12-20T12:01:58;7.70;;;3.30;;
57297;SDS011;43147;50.972;18.210;2023-12-20T12:04:26;10.90;;;4.90;;
57297;SDS011;43147;50.972;18.210;2023-12-20T12:06:53;13.70;;;4.60;;
57297;SDS011;43147;50.972;18.210;2023-12-20T12:09:21;12.30;;;6.60;;
57297;SDS011;43147;50.972;18.210;2023-12-20T12:11:48;8.90;;;5.90;;
57297;SDS011;43147;50.972;18.210;2023-12-20T12:14:14;7.30;;;4.10;;
57297;SDS011;43147;50.972;18.210;2023-12-20T12:16:41;5.30;;;2.60;;
57297;SDS011;43147;50.972;18.210;2023-12-20T12:19:07;3.80;;;2.60;;
57297;SDS011;43147;50.972;18.210;2023-12-20T12:21:46;7.10;;;3.30;;
57297;SDS011;43147;50.972;18.210;2023-12-20T12:24:11;7.80;;;2.90;;
57297;SDS011;43147;50.972;18.210;2023-12-20T12:26:37;4.80;;;2.50;;
57297;SDS011;43147;50.972;18.210;2023-12-20T12:29:03;14.60;;;7.90;;
57297;SDS011;43147;50.972;18.210;2023-12-20T12:31:28;12.80;;;7.30;;
57297;SDS011;43147;50.972;18.210;2023-12-20T12:33:55;6.80;;;3.40;;
57297;SDS011;43147;50.972;18.210;2023-12-20T12:36:21;6.30;;;3.30;;
57297;SDS011;43147;50.972;18.210;2023-12-20T12:38:47;9.50;;;3.10;;
57297;SDS011;43147;50.972;18.210;2023-12-20T12:41:13;5.50;;;3.00;;
57297;SDS011;43147;50.972;18.210;2023-12-20T12:43:40;8.80;;;3.80;;
57297;SDS011;43147;50.972;18.210;2023-12-20T12:46:09;8.70;;;4.10;;
57297;SDS011;43147;50.972;18.210;2023-12-20T12:48:34;10.50;;;5.80;;
57297;SDS011;43147;50.972;18.210;2023-12-20T12:51:00;6.00;;;3.00;;
57297;SDS011;43147;50.972;18.210;2023-12-20T12:53:28;4.00;;;2.20;;
57297;SDS011;43147;50.972;18.210;2023-12-20T12:55:53;4.10;;;2.10;;
57297;SDS011;43147;50.972;18.210;2023-12-20T12:58:19;20.40;;;3.50;;
57297;SDS011;43147;50.972;18.210;2023-12-20T13:00:45;5.10;;;2.60;;
57297;SDS011;43147;50.972;18.210;2023-12-20T13:03:10;2.70;;;2.00;;
57297;SDS011;43147;50.972;18.210;2023-12-20T13:05:36;4.90;;;2.00;;
57297;SDS011;43147;50.972;18.210;2023-12-20T13:08:03;6.10;;;2.60;;
57297;SDS011;43147;50.972;18.210;2023-12-20T13:10:29;5.10;;;2.90;;
57297;SDS011;43147;50.972;18.210;2023-12-20T13:12:54;7.60;;;3.30;;
57297;SDS011;43147;50.972;18.210;2023-12-20T13:15:20;8.90;;;2.90;;
57297;SDS011;43147;50.972;18.210;2023-12-20T13:17:45;9.30;;;2.90;;
57297;SDS011;43147;50.972;18.210;2023-12-20T13:20:11;9.30;;;2.80;;
57297;SDS011;43147;50.972;18.210;2023-12-20T13:22:37;4.90;;;2.80;;
57297;SDS011;43147;50.972;18.210;2023-12-20T13:25:03;10.60;;;3.00;;
57297;SDS011;43147;50.972;18.210;2023-12-20T13:27:29;3.80;;;2.00;;
57297;SDS011;43147;50.972;18.210;2023-12-20T13:29:54;4.30;;;2.00;;
57297;SDS011;43147;50.972;18.210;2023-12-20T13:32:20;5.50;;;2.70;;
57297;SDS011;43147;50.972;18.210;2023-12-20T13:34:46;9.00;;;3.60;;
57297;SDS011;43147;50.972;18.210;2023-12-20T13:37:12;12.30;;;3.90;;
57297;SDS011;43147;50.972;18.210;2023-12-20T13:39:37;9.30;;;3.70;;
57297;SDS011;43147;50.972;18.210;2023-12-20T13:42:03;9.00;;;3.90;;
57297;SDS011;43147;50.972;18.210;2023-12-20T13:44:31;14.30;;;5.60;;
57297;SDS011;43147;50.972;18.210;2023-12-20T13:46:57;12.10;;;4.40;;
57297;SDS011;43147;50.972;18.210;2023-12-20T13:49:22;10.40;;;3.60;;
57297;SDS011;43147;50.972;18.210;2023-12-20T13:51:51;11.20;;;4.20;;
57297;SDS011;43147;50.972;18.210;2023-12-20T13:54:16;7.60;;;3.40;;
57297;SDS011;43147;50.972;18.210;2023-12-20T13:56:45;13.10;;;3.90;;
57297;SDS011;43147;50.972;18.210;2023-12-20T13:59:11;14.70;;;7.40;;
57297;SDS011;43147;50.972;18.210;2023-12-20T14:01:37;6.40;;;3.90;;
57297;SDS011;43147;50.972;18.210;2023-12-20T14:04:03;4.10;;;2.20;;
57297;SDS011;43147;50.972;18.210;2023-12-20T14:06:29;6.90;;;3.00;;
57297;SDS011;43147;50.972;18.210;2023-12-20T14:08:55;10.50;;;3.90;;
57297;SDS011;43147;50.972;18.210;2023-12-20T14:11:20;9.70;;;4.20;;
57297;SDS011;43147;50.972;18.210;2023-12-20T14:13:46;23.60;;;5.90;;
57297;SDS011;43147;50.972;18.210;2023-12-20T14:16:12;13.80;;;5.00;;
57297;SDS011;43147;50.972;18.210;2023-12-20T14:18:37;15.20;;;5.60;;
57297;SDS011;43147;50.972;18.210;2023-12-20T14:21:05;15.80;;;5.30;;
57297;SDS011;43147;50.972;18.210;2023-12-20T14:23:31;12.50;;;4.20;;
57297;SDS011;43147;50.972;18.210;2023-12-20T14:25:59;11.90;;;4.50;;
57297;SDS011;43147;50.972;18.210;2023-12-20T14:28:25;12.70;;;4.30;;
57297;SDS011;43147;50.972;18.210;2023-12-20T14:30:51;7.30;;;2.80;;
57297;SDS011;43147;50.972;18.210;2023-12-20T14:33:16;6.00;;;3.10;;